Houston, TX

11:59 PM CST on December 02, 2016 (GMT -0600)
Daintrees Corner, First Ward | | Change Station
Active Advisory: Coastal Flood Advisory

Elev 49 ft 29.77 °N, 95.37 °W | Updated 11 seconds ago

Overcast
Overcast
55.1 °F
Feels Like 55.1 °F
N
1.0
Wind Variable Wind from East

Today
High -- | Low -- °F
--% Chance of Precip.
Yesterday
High -- | Low -- °F
Precip. -- in
Pressure 29.96 in
Visibility 10.0 miles
Clouds Overcast 1700 ft
Dew Point 51 °F
Humidity 86%
Rainfall 0.15 in
Snow Depth Not available.
7:00 AM 5:21 PM
Waxing Crescent, 12% visible
METAR KMCJ 030555Z AUTO 06012KT 10SM OVC017 13/09 A2996 RMK AO1
Pressure 29.96 in
Visibility 10.0 miles
Clouds Overcast 1700 ft
Dew Point 51 °F
Humidity 86%
Rainfall 0.15 in
Snow Depth Not available.
7:00 AM 5:21 PM
Waxing Crescent, 12% visible
METAR KMCJ 030555Z AUTO 06012KT 10SM OVC017 13/09 A2996 RMK AO1

10-Day Weather Forecast

Almanac

Astronomy

Dec. 02, 2016 Rise Set
Actual Time
Civil Twilight
Nautical Twilight
Astronomical Twilight
Moon
Length of Visible Light
Length of Day
Tomorrow will be .
, % of the Moon is Illuminated

Today's Extremes

State Highs State Lows

Community

WunderPhotos

Upload Photos

1,955,427 photos uploaded!

WunderBlog® & News

Nearby

Air Quality

  Air Quality AQ Index Pollutant
Not available.

Snow Depth

Station Depth Elevation

Earthquake Activity

City Distance Mag. Time & Date
Minimum magnitude displayed is 2.5.

Coastal Water Temperatures

Place Temperature

Stations

Nearby Weather Stations

Station Location Temp. Windchill Dew Point Humidity Wind Precip. Elev Updated Type
                   

Watches & Warnings

Coastal Flood Advisory
Issued: 2:26 PM CST Dec. 2, 2016 – National Weather Service

... Coastal Flood Advisory remains in effect until 6 am CST
Saturday...

* coastal flooding... water levels of between 3.3 feet to 3.8 feet
will cause coastal flooding along east facing shorelines.

* Timing... Friday afternoon through Saturday morning.

* Impacts... Gulf and Bay waters may overcome dunes and possibly
overwash portions of Highway 87 on the Bolivar Peninsula... as
well as sections of the Blue Water Highway in Brazoria County.
Low lying roadways... such as Toddville Road in Seabrook... may
also experience minor flooding.

Precautionary/preparedness actions...

A coastal Flood Advisory indicates that onshore winds and tides
will combine to generate flooding of low areas along the shore.